Etusivu
METAR-TAF:

METAR-TAF

Lentoasemat :

Liberia, Costa Rica

Leveyspiiri: 10-37N, Pituuspiiri: 085-26W, korkeus merenpinnasta: 80 m

Tämänhetkinen sää

Tämä raportti tehtiin 15 minuuttia sitten, kello 06.00 UTC
Tuuli 3 kn idästä
Lämpötila 26°C
Kosteus 84%
Ilmanpaine 1013 hPa
Näkyvyys 10 km tai enemmän
Muutamia pilviä 4000 ft:n korkeudessa

METAR: MRLB 270600Z 08003KT 9999 FEW040 26/23 A2992

Aika: 00:15 (06:15 UTC)

Sääennuste

Tämä raportti tehtiin 1 tunti ja 15 minuuttia sitten, kello 05.00 UTC
Ennuste voimassa 27. päivästä klo 06 UTC - 28. päivään klo 06 UTC
Tuuli 9 kn idästä/kaakosta
Näkyvyys 10 km tai enemmän
Muutamia pilviä 4000 ft:n korkeudessa
Ajoittain
27. päivästä klo 06 UTC - 27. päivään klo 14 UTC
Tuuli 2 kn eri suunnista
Ajoittain
27. päivästä klo 20 UTC - 28. päivään klo 06 UTC
Tuuli 15 kn idästä

TAF: MRLB 270500Z 2706/2806 12009KT 9999 FEW040 TX34/2719Z TN21/2712Z TEMPO 2706/2714 VRB02KT TEMPO 2720/2806 08015KT

Säähavainnot ja -ennusteet yli 4000 lentoasemalta (METAR- ja TAF-raportit).

Käytössä olevat sääasemat on merkitty karttaan keltaisilla ja punaisilla pisteillä.

Aseta hiiri pisteen päälle nähdäksesi sääaseman nimen.

Klikkaa sitten nähdäksesi säähavainnot ja -ennusteet.

Kartan vaihtaminen: klikkaa mustalla rastilla varustettuja vihreitä pisteitä, niin voit zoomata sisään; viivalla varustettua vihreää pistettä, niin voit zoomata ulos tai vihreitä nuolia, niin pääset viereisille kartoille.


METAR-TAF: